sensor_id;sensor_type;location;lat;lon;timestamp;pressure;altitude;pressure_sealevel;temperature;humidity
71392;BME280;59205;50.610;12.638;2022-10-15T00:00:26;95071.81;;;12.84;98.21
71392;BME280;59205;50.610;12.638;2022-10-15T00:02:51;95067.84;;;12.85;97.94
71392;BME280;59205;50.610;12.638;2022-10-15T00:05:17;95069.81;;;12.85;97.80
71392;BME280;59205;50.610;12.638;2022-10-15T00:07:43;95071.06;;;12.84;97.83
71392;BME280;59205;50.610;12.638;2022-10-15T00:10:08;95066.59;;;12.81;98.22
71392;BME280;59205;50.610;12.638;2022-10-15T00:12:34;95070.06;;;12.81;98.28
71392;BME280;59205;50.610;12.638;2022-10-15T00:15:00;95058.69;;;12.83;98.34
71392;BME280;59205;50.610;12.638;2022-10-15T00:17:26;95056.94;;;12.80;98.21
71392;BME280;59205;50.610;12.638;2022-10-15T00:19:52;95062.38;;;12.80;98.34
71392;BME280;59205;50.610;12.638;2022-10-15T00:22:17;95054.72;;;12.84;98.17
71392;BME280;59205;50.610;12.638;2022-10-15T00:24:43;95055.72;;;12.81;98.40
71392;BME280;59205;50.610;12.638;2022-10-15T00:27:08;95049.34;;;12.89;97.90
71392;BME280;59205;50.610;12.638;2022-10-15T00:29:34;95047.91;;;12.94;97.45
71392;BME280;59205;50.610;12.638;2022-10-15T00:32:00;95050.34;;;12.92;97.77
71392;BME280;59205;50.610;12.638;2022-10-15T00:34:26;95035.84;;;13.00;96.97
71392;BME280;59205;50.610;12.638;2022-10-15T00:36:51;95041.50;;;12.97;97.12
71392;BME280;59205;50.610;12.638;2022-10-15T00:39:17;95038.00;;;12.96;96.97
71392;BME280;59205;50.610;12.638;2022-10-15T00:41:43;95039.53;;;13.03;96.64
71392;BME280;59205;50.610;12.638;2022-10-15T00:46:48;95048.94;;;13.02;96.57
71392;BME280;59205;50.610;12.638;2022-10-15T00:49:25;95041.28;;;13.00;97.19
71392;BME280;59205;50.610;12.638;2022-10-15T00:51:55;95033.13;;;13.00;97.21
71392;BME280;59205;50.610;12.638;2022-10-15T00:54:23;95037.56;;;13.03;96.68
71392;BME280;59205;50.610;12.638;2022-10-15T00:56:53;95020.03;;;13.04;96.57
71392;BME280;59205;50.610;12.638;2022-10-15T00:59:21;95014.81;;;13.01;96.54
71392;BME280;59205;50.610;12.638;2022-10-15T01:01:49;95024.97;;;13.06;96.44
71392;BME280;59205;50.610;12.638;2022-10-15T01:04:15;95010.38;;;13.03;96.32
71392;BME280;59205;50.610;12.638;2022-10-15T01:06:43;95007.41;;;13.07;95.55
71392;BME280;59205;50.610;12.638;2022-10-15T01:09:09;94997.25;;;13.02;95.95
71392;BME280;59205;50.610;12.638;2022-10-15T01:11:41;94996.03;;;13.03;95.80
71392;BME280;59205;50.610;12.638;2022-10-15T01:14:18;94997.50;;;13.04;95.63
71392;BME280;59205;50.610;12.638;2022-10-15T01:17:03;95008.88;;;13.08;95.41
71392;BME280;59205;50.610;12.638;2022-10-15T01:25:48;95011.34;;;13.06;95.69
71392;BME280;59205;50.610;12.638;2022-10-15T01:28:19;95011.34;;;13.06;95.82
71392;BME280;59205;50.610;12.638;2022-10-15T01:30:54;95003.94;;;13.06;95.26
71392;BME280;59205;50.610;12.638;2022-10-15T01:33:44;94998.22;;;12.99;95.97
71392;BME280;59205;50.610;12.638;2022-10-15T01:36:19;94993.53;;;12.94;96.78
71392;BME280;59205;50.610;12.638;2022-10-15T01:38:54;94990.53;;;12.97;96.34
71392;BME280;59205;50.610;12.638;2022-10-15T01:41:32;94989.09;;;13.02;95.71
71392;BME280;59205;50.610;12.638;2022-10-15T01:44:08;94995.28;;;13.02;95.53
71392;BME280;59205;50.610;12.638;2022-10-15T01:46:42;94992.56;;;13.08;94.77
71392;BME280;59205;50.610;12.638;2022-10-15T01:49:12;94999.00;;;12.99;95.58
71392;BME280;59205;50.610;12.638;2022-10-15T01:51:40;94995.25;;;12.97;95.77
71392;BME280;59205;50.610;12.638;2022-10-15T01:54:10;94988.38;;;13.01;95.33
71392;BME280;59205;50.610;12.638;2022-10-15T01:56:38;94986.38;;;13.02;95.50
71392;BME280;59205;50.610;12.638;2022-10-15T01:59:06;94985.13;;;13.03;95.07
71392;BME280;59205;50.610;12.638;2022-10-15T02:01:33;94992.31;;;13.00;95.78
71392;BME280;59205;50.610;12.638;2022-10-15T02:03:58;94986.13;;;13.00;95.35
71392;BME280;59205;50.610;12.638;2022-10-15T02:06:36;94991.81;;;13.02;95.12
71392;BME280;59205;50.610;12.638;2022-10-15T02:15:16;94980.88;;;12.91;96.68
71392;BME280;59205;50.610;12.638;2022-10-15T02:20:57;94965.59;;;12.99;95.55
71392;BME280;59205;50.610;12.638;2022-10-15T02:23:35;94961.88;;;13.02;95.31
71392;BME280;59205;50.610;12.638;2022-10-15T02:26:03;94964.38;;;13.05;94.77
71392;BME280;59205;50.610;12.638;2022-10-15T02:28:32;94959.19;;;13.07;95.04
71392;BME280;59205;50.610;12.638;2022-10-15T02:31:01;94953.97;;;13.04;94.93
71392;BME280;59205;50.610;12.638;2022-10-15T02:33:28;94940.63;;;13.00;95.32
71392;BME280;59205;50.610;12.638;2022-10-15T02:35:55;94941.63;;;13.03;95.01
71392;BME280;59205;50.610;12.638;2022-10-15T02:38:24;94934.69;;;13.02;95.01
71392;BME280;59205;50.610;12.638;2022-10-15T02:40:52;94929.75;;;13.00;95.17
71392;BME280;59205;50.610;12.638;2022-10-15T02:43:19;94926.28;;;13.00;95.17
71392;BME280;59205;50.610;12.638;2022-10-15T02:45:47;94935.69;;;12.99;95.37
71392;BME280;59205;50.610;12.638;2022-10-15T02:48:14;94929.50;;;13.04;95.00
71392;BME280;59205;50.610;12.638;2022-10-15T02:50:39;94929.75;;;13.06;94.76
71392;BME280;59205;50.610;12.638;2022-10-15T02:53:05;94926.06;;;13.03;94.92
71392;BME280;59205;50.610;12.638;2022-10-15T02:55:31;94927.78;;;13.01;95.03
71392;BME280;59205;50.610;12.638;2022-10-15T02:57:56;94929.75;;;13.00;94.99
71392;BME280;59205;50.610;12.638;2022-10-15T03:00:22;94924.31;;;12.95;95.64
71392;BME280;59205;50.610;12.638;2022-10-15T03:02:47;94924.06;;;12.98;95.40
71392;BME280;59205;50.610;12.638;2022-10-15T03:05:13;94924.56;;;13.02;95.11
71392;BME280;59205;50.610;12.638;2022-10-15T03:07:38;94933.22;;;13.01;95.30
71392;BME280;59205;50.610;12.638;2022-10-15T03:10:04;94927.28;;;13.02;95.26
71392;BME280;59205;50.610;12.638;2022-10-15T03:12:30;94922.31;;;13.01;94.96
71392;BME280;59205;50.610;12.638;2022-10-15T03:14:55;94923.09;;;13.01;95.13
71392;BME280;59205;50.610;12.638;2022-10-15T03:17:21;94919.63;;;13.01;95.09
71392;BME280;59205;50.610;12.638;2022-10-15T03:19:46;94923.56;;;13.00;95.20
71392;BME280;59205;50.610;12.638;2022-10-15T03:22:12;94917.38;;;12.94;95.97
71392;BME280;59205;50.610;12.638;2022-10-15T03:24:37;94909.94;;;12.94;95.97
71392;BME280;59205;50.610;12.638;2022-10-15T03:27:03;94913.69;;;13.02;95.33
71392;BME280;59205;50.610;12.638;2022-10-15T03:29:28;94917.38;;;13.05;95.55
71392;BME280;59205;50.610;12.638;2022-10-15T03:31:53;94910.47;;;13.04;95.29
71392;BME280;59205;50.610;12.638;2022-10-15T03:34:19;94903.53;;;13.03;95.84
71392;BME280;59205;50.610;12.638;2022-10-15T03:36:44;94908.47;;;12.99;96.07
71392;BME280;59205;50.610;12.638;2022-10-15T03:39:11;94910.19;;;12.96;96.09
71392;BME280;59205;50.610;12.638;2022-10-15T03:41:37;94904.75;;;12.96;96.18
71392;BME280;59205;50.610;12.638;2022-10-15T03:44:04;94905.75;;;12.99;96.54
71392;BME280;59205;50.610;12.638;2022-10-15T03:46:30;94904.28;;;12.98;96.43
71392;BME280;59205;50.610;12.638;2022-10-15T03:48:55;94910.94;;;12.97;96.64
71392;BME280;59205;50.610;12.638;2022-10-15T03:51:21;94908.97;;;12.97;96.62
71392;BME280;59205;50.610;12.638;2022-10-15T03:53:46;94910.94;;;12.97;96.61
71392;BME280;59205;50.610;12.638;2022-10-15T03:56:12;94911.44;;;12.95;97.04
71392;BME280;59205;50.610;12.638;2022-10-15T03:58:37;94911.94;;;12.94;97.25
71392;BME280;59205;50.610;12.638;2022-10-15T04:01:14;94900.31;;;12.99;96.84
71392;BME280;59205;50.610;12.638;2022-10-15T04:03:40;94904.75;;;12.96;96.86
71392;BME280;59205;50.610;12.638;2022-10-15T04:06:06;94909.47;;;12.96;97.31
71392;BME280;59205;50.610;12.638;2022-10-15T04:08:31;94906.50;;;12.94;97.45
71392;BME280;59205;50.610;12.638;2022-10-15T04:10:57;94910.44;;;12.93;97.37
71392;BME280;59205;50.610;12.638;2022-10-15T04:13:23;94909.22;;;12.94;97.41
71392;BME280;59205;50.610;12.638;2022-10-15T04:15:49;94910.16;;;12.91;98.33
71392;BME280;59205;50.610;12.638;2022-10-15T04:18:15;94907.72;;;12.93;97.64
71392;BME280;59205;50.610;12.638;2022-10-15T04:20:40;94915.63;;;12.96;97.45
71392;BME280;59205;50.610;12.638;2022-10-15T04:23:07;94911.44;;;12.95;97.47
71392;BME280;59205;50.610;12.638;2022-10-15T04:25:33;94913.34;;;12.84;99.22
71392;BME280;59205;50.610;12.638;2022-10-15T04:27:58;94915.34;;;12.89;99.24
71392;BME280;59205;50.610;12.638;2022-10-15T04:30:23;94909.69;;;12.92;98.61
71392;BME280;59205;50.610;12.638;2022-10-15T04:32:52;94916.38;;;12.97;98.26
71392;BME280;59205;50.610;12.638;2022-10-15T04:35:18;94914.41;;;12.97;98.63
71392;BME280;59205;50.610;12.638;2022-10-15T04:37:43;94916.38;;;12.97;99.06
71392;BME280;59205;50.610;12.638;2022-10-15T04:40:09;94918.09;;;12.94;99.59
71392;BME280;59205;50.610;12.638;2022-10-15T04:42:36;94919.56;;;12.90;100.00
71392;BME280;59205;50.610;12.638;2022-10-15T04:45:02;94916.31;;;12.86;100.00
71392;BME280;59205;50.610;12.638;2022-10-15T04:47:27;94917.03;;;12.81;100.00
71392;BME280;59205;50.610;12.638;2022-10-15T04:49:53;94918.28;;;12.80;100.00
71392;BME280;59205;50.610;12.638;2022-10-15T04:52:18;94920.75;;;12.78;100.00
71392;BME280;59205;50.610;12.638;2022-10-15T04:54:44;94927.66;;;12.79;100.00
71392;BME280;59205;50.610;12.638;2022-10-15T04:57:09;94922.47;;;12.75;100.00
71392;BME280;59205;50.610;12.638;2022-10-15T04:59:35;94917.78;;;12.76;100.00
71392;BME280;59205;50.610;12.638;2022-10-15T05:02:00;94920.25;;;12.74;100.00
71392;BME280;59205;50.610;12.638;2022-10-15T05:04:26;94915.78;;;12.71;100.00
71392;BME280;59205;50.610;12.638;2022-10-15T05:06:51;94913.28;;;12.67;100.00
71392;BME280;59205;50.610;12.638;2022-10-15T05:09:17;94923.16;;;12.65;100.00
71392;BME280;59205;50.610;12.638;2022-10-15T05:11:42;94920.19;;;12.63;100.00
71392;BME280;59205;50.610;12.638;2022-10-15T05:14:08;94915.97;;;12.62;100.00
71392;BME280;59205;50.610;12.638;2022-10-15T05:16:33;94909.81;;;12.61;100.00
71392;BME280;59205;50.610;12.638;2022-10-15T05:19:01;94913.25;;;12.62;100.00
71392;BME280;59205;50.610;12.638;2022-10-15T05:21:28;94911.78;;;12.61;100.00
71392;BME280;59205;50.610;12.638;2022-10-15T05:23:56;94913.78;;;12.60;100.00
71392;BME280;59205;50.610;12.638;2022-10-15T05:26:23;94912.53;;;12.61;100.00
71392;BME280;59205;50.610;12.638;2022-10-15T05:28:49;94918.94;;;12.64;100.00
71392;BME280;59205;50.610;12.638;2022-10-15T05:31:21;94914.75;;;12.63;100.00
71392;BME280;59205;50.610;12.638;2022-10-15T05:33:48;94931.53;;;12.56;100.00
71392;BME280;59205;50.610;12.638;2022-10-15T05:36:19;94924.66;;;12.60;100.00
71392;BME280;59205;50.610;12.638;2022-10-15T05:38:47;94922.91;;;12.63;100.00
71392;BME280;59205;50.610;12.638;2022-10-15T05:41:13;94917.97;;;12.61;100.00
71392;BME280;59205;50.610;12.638;2022-10-15T05:43:39;94912.53;;;12.61;100.00
71392;BME280;59205;50.610;12.638;2022-10-15T05:46:05;94924.38;;;12.64;100.00
71392;BME280;59205;50.610;12.638;2022-10-15T05:48:30;94912.56;;;12.67;100.00
71392;BME280;59205;50.610;12.638;2022-10-15T05:51:04;94922.22;;;12.68;100.00
71392;BME280;59205;50.610;12.638;2022-10-15T05:53:29;94929.84;;;12.69;100.00
71392;BME280;59205;50.610;12.638;2022-10-15T05:55:55;94938.25;;;12.71;100.00
71392;BME280;59205;50.610;12.638;2022-10-15T05:58:23;94936.28;;;12.66;100.00
71392;BME280;59205;50.610;12.638;2022-10-15T06:01:09;94929.84;;;12.69;100.00
71392;BME280;59205;50.610;12.638;2022-10-15T06:03:36;94930.84;;;12.66;100.00
71392;BME280;59205;50.610;12.638;2022-10-15T06:06:01;94947.16;;;12.66;100.00
71392;BME280;59205;50.610;12.638;2022-10-15T06:08:28;94937.03;;;12.67;100.00
71392;BME280;59205;50.610;12.638;2022-10-15T06:10:54;94937.75;;;12.67;100.00
71392;BME280;59205;50.610;12.638;2022-10-15T06:13:21;94934.56;;;12.69;100.00
71392;BME280;59205;50.610;12.638;2022-10-15T06:15:47;94941.75;;;12.72;100.00
71392;BME280;59205;50.610;12.638;2022-10-15T06:18:13;94935.78;;;12.68;100.00
71392;BME280;59205;50.610;12.638;2022-10-15T06:20:41;94941.50;;;12.70;100.00
71392;BME280;59205;50.610;12.638;2022-10-15T06:23:08;94938.03;;;12.75;100.00
71392;BME280;59205;50.610;12.638;2022-10-15T06:25:34;94943.97;;;12.79;100.00
71392;BME280;59205;50.610;12.638;2022-10-15T06:28:04;94934.59;;;12.80;100.00
71392;BME280;59205;50.610;12.638;2022-10-15T06:30:30;94938.06;;;12.86;100.00
71392;BME280;59205;50.610;12.638;2022-10-15T06:32:55;94936.34;;;12.83;100.00
71392;BME280;59205;50.610;12.638;2022-10-15T06:35:22;94940.78;;;12.86;100.00
71392;BME280;59205;50.610;12.638;2022-10-15T06:37:48;94935.09;;;12.84;100.00
71392;BME280;59205;50.610;12.638;2022-10-15T06:40:14;94939.31;;;12.85;100.00
71392;BME280;59205;50.610;12.638;2022-10-15T06:42:40;94924.94;;;12.79;100.00
71392;BME280;59205;50.610;12.638;2022-10-15T06:45:06;94935.09;;;12.78;100.00
71392;BME280;59205;50.610;12.638;2022-10-15T06:47:34;94934.59;;;12.80;100.00
71392;BME280;59205;50.610;12.638;2022-10-15T06:49:59;94929.41;;;12.82;100.00
71392;BME280;59205;50.610;12.638;2022-10-15T06:52:25;94948.22;;;12.85;100.00
71392;BME280;59205;50.610;12.638;2022-10-15T06:54:50;94954.47;;;12.97;100.00
71392;BME280;59205;50.610;12.638;2022-10-15T06:57:16;94956.00;;;13.09;100.00
71392;BME280;59205;50.610;12.638;2022-10-15T06:59:42;94948.84;;;13.17;100.00
71392;BME280;59205;50.610;12.638;2022-10-15T07:02:09;94952.34;;;13.34;100.00
71392;BME280;59205;50.610;12.638;2022-10-15T07:04:34;94963.97;;;13.40;100.00
71392;BME280;59205;50.610;12.638;2022-10-15T07:07:00;94972.91;;;13.51;100.00
71392;BME280;59205;50.610;12.638;2022-10-15T07:09:25;94971.41;;;13.61;100.00
71392;BME280;59205;50.610;12.638;2022-10-15T07:11:51;94975.16;;;13.53;100.00
71392;BME280;59205;50.610;12.638;2022-10-15T07:14:17;94978.38;;;13.57;100.00
71392;BME280;59205;50.610;12.638;2022-10-15T07:16:42;94980.09;;;13.70;100.00
71392;BME280;59205;50.610;12.638;2022-10-15T07:19:08;94983.06;;;13.78;100.00
71392;BME280;59205;50.610;12.638;2022-10-15T07:21:34;94982.59;;;13.74;100.00
71392;BME280;59205;50.610;12.638;2022-10-15T07:23:59;94994.72;;;13.89;100.00
71392;BME280;59205;50.610;12.638;2022-10-15T07:29:11;94999.19;;;13.87;100.00
71392;BME280;59205;50.610;12.638;2022-10-15T07:31:37;95004.41;;;13.85;100.00
71392;BME280;59205;50.610;12.638;2022-10-15T07:34:03;95001.88;;;13.70;100.00
71392;BME280;59205;50.610;12.638;2022-10-15T07:36:28;95004.34;;;13.68;100.00
71392;BME280;59205;50.610;12.638;2022-10-15T07:38:54;94992.97;;;13.81;100.00
71392;BME280;59205;50.610;12.638;2022-10-15T07:41:19;95000.41;;;13.75;100.00
71392;BME280;59205;50.610;12.638;2022-10-15T07:43:45;95012.06;;;13.86;100.00
71392;BME280;59205;50.610;12.638;2022-10-15T07:46:10;95008.09;;;13.87;100.00
71392;BME280;59205;50.610;12.638;2022-10-15T07:48:36;95003.66;;;13.73;100.00
71392;BME280;59205;50.610;12.638;2022-10-15T07:51:04;95001.88;;;13.70;100.00
71392;BME280;59205;50.610;12.638;2022-10-15T07:53:31;95002.38;;;13.69;100.00
71392;BME280;59205;50.610;12.638;2022-10-15T07:56:03;95000.91;;;13.73;100.00
71392;BME280;59205;50.610;12.638;2022-10-15T07:58:30;95005.63;;;13.78;100.00
71392;BME280;59205;50.610;12.638;2022-10-15T08:00:59;95013.28;;;13.80;100.00
71392;BME280;59205;50.610;12.638;2022-10-15T08:03:25;95012.78;;;13.92;100.00
71392;BME280;59205;50.610;12.638;2022-10-15T08:05:51;95015.28;;;13.96;100.00
71392;BME280;59205;50.610;12.638;2022-10-15T08:08:18;95021.97;;;13.95;100.00
71392;BME280;59205;50.610;12.638;2022-10-15T08:10:44;95017.28;;;14.06;100.00
71392;BME280;59205;50.610;12.638;2022-10-15T08:13:10;95020.47;;;14.10;100.00
71392;BME280;59205;50.610;12.638;2022-10-15T08:15:40;95018.75;;;14.02;100.00
71392;BME280;59205;50.610;12.638;2022-10-15T08:18:06;95018.25;;;14.03;100.00
71392;BME280;59205;50.610;12.638;2022-10-15T08:20:32;95019.75;;;14.04;100.00
71392;BME280;59205;50.610;12.638;2022-10-15T08:22:57;95020.75;;;14.07;100.00
71392;BME280;59205;50.610;12.638;2022-10-15T08:25:23;95018.28;;;14.20;100.00
71392;BME280;59205;50.610;12.638;2022-10-15T08:27:52;95029.16;;;14.14;100.00
71392;BME280;59205;50.610;12.638;2022-10-15T08:30:17;95038.84;;;14.10;100.00
71392;BME280;59205;50.610;12.638;2022-10-15T08:32:43;95036.34;;;14.06;100.00
71392;BME280;59205;50.610;12.638;2022-10-15T08:35:08;95046.53;;;14.22;100.00
71392;BME280;59205;50.610;12.638;2022-10-15T08:37:34;95052.00;;;14.22;100.00
71392;BME280;59205;50.610;12.638;2022-10-15T08:40:00;95045.53;;;14.25;100.00
71392;BME280;59205;50.610;12.638;2022-10-15T08:42:36;95047.03;;;14.26;100.00
71392;BME280;59205;50.610;12.638;2022-10-15T08:45:16;95041.59;;;14.32;100.00
71392;BME280;59205;50.610;12.638;2022-10-15T08:47:47;95049.50;;;14.35;100.00
71392;BME280;59205;50.610;12.638;2022-10-15T08:52:42;95045.78;;;14.33;100.00
71392;BME280;59205;50.610;12.638;2022-10-15T08:55:11;95058.16;;;14.61;100.00
71392;BME280;59205;50.610;12.638;2022-10-15T09:00:23;95058.41;;;14.63;100.00
71392;BME280;59205;50.610;12.638;2022-10-15T09:02:56;95066.38;;;14.39;100.00
71392;BME280;59205;50.610;12.638;2022-10-15T09:05:38;95062.13;;;14.60;100.00
71392;BME280;59205;50.610;12.638;2022-10-15T09:10:54;95064.63;;;14.36;100.00
71392;BME280;59205;50.610;12.638;2022-10-15T09:13:29;95072.56;;;14.29;100.00
71392;BME280;59205;50.610;12.638;2022-10-15T09:16:01;95073.31;;;14.18;100.00
71392;BME280;59205;50.610;12.638;2022-10-15T09:18:31;95083.44;;;14.23;100.00
71392;BME280;59205;50.610;12.638;2022-10-15T09:20:59;95085.88;;;14.10;100.00
71392;BME280;59205;50.610;12.638;2022-10-15T09:23:27;95084.16;;;14.13;100.00
71392;BME280;59205;50.610;12.638;2022-10-15T09:26:26;95087.38;;;14.00;100.00
71392;BME280;59205;50.610;12.638;2022-10-15T09:31:44;95103.28;;;14.40;100.00
71392;BME280;59205;50.610;12.638;2022-10-15T09:34:52;95108.22;;;14.42;100.00
71392;BME280;59205;50.610;12.638;2022-10-15T09:37:32;95105.53;;;14.36;100.00
71392;BME280;59205;50.610;12.638;2022-10-15T09:42:44;95108.50;;;14.55;100.00
71392;BME280;59205;50.610;12.638;2022-10-15T09:45:14;95109.97;;;14.50;100.00
71392;BME280;59205;50.610;12.638;2022-10-15T09:47:41;95112.94;;;14.52;100.00
71392;BME280;59205;50.610;12.638;2022-10-15T09:50:10;95109.47;;;14.68;100.00
71392;BME280;59205;50.610;12.638;2022-10-15T09:53:04;95117.91;;;14.70;100.00
71392;BME280;59205;50.610;12.638;2022-10-15T09:58:26;95106.44;;;14.99;100.00
71392;BME280;59205;50.610;12.638;2022-10-15T10:00:59;95102.50;;;15.00;100.00
71392;BME280;59205;50.610;12.638;2022-10-15T10:03:28;95111.69;;;14.92;100.00
71392;BME280;59205;50.610;12.638;2022-10-15T10:06:13;95108.66;;;15.17;100.00
71392;BME280;59205;50.610;12.638;2022-10-15T10:08:54;95106.19;;;15.14;100.00
71392;BME280;59205;50.610;12.638;2022-10-15T10:11:22;95106.25;;;14.92;100.00
71392;BME280;59205;50.610;12.638;2022-10-15T10:16:14;95122.63;;;15.76;100.00
71392;BME280;59205;50.610;12.638;2022-10-15T10:18:41;95126.44;;;15.51;100.00
71392;BME280;59205;50.610;12.638;2022-10-15T10:21:29;95128.44;;;15.50;100.00
71392;BME280;59205;50.610;12.638;2022-10-15T10:24:16;95134.66;;;15.40;100.00
71392;BME280;59205;50.610;12.638;2022-10-15T10:26:43;95132.75;;;14.97;100.00
71392;BME280;59205;50.610;12.638;2022-10-15T10:29:16;95126.00;;;15.25;100.00
71392;BME280;59205;50.610;12.638;2022-10-15T10:31:43;95126.75;;;15.26;100.00
71392;BME280;59205;50.610;12.638;2022-10-15T10:34:14;95127.22;;;15.46;100.00
71392;BME280;59205;50.610;12.638;2022-10-15T10:36:40;95125.50;;;15.43;100.00
71392;BME280;59205;50.610;12.638;2022-10-15T10:44:25;95131.16;;;15.50;98.42
71392;BME280;59205;50.610;12.638;2022-10-15T10:47:15;95132.94;;;15.43;97.90
71392;BME280;59205;50.610;12.638;2022-10-15T10:49:45;95136.13;;;15.52;97.73
71392;BME280;59205;50.610;12.638;2022-10-15T10:52:21;95133.00;;;15.88;95.67
71392;BME280;59205;50.610;12.638;2022-10-15T10:57:34;95131.44;;;16.50;92.27
71392;BME280;59205;50.610;12.638;2022-10-15T11:00:04;95122.25;;;16.01;94.43
71392;BME280;59205;50.610;12.638;2022-10-15T11:02:31;95119.31;;;15.94;93.12
71392;BME280;59205;50.610;12.638;2022-10-15T11:04:58;95108.78;;;17.08;86.87
71392;BME280;59205;50.610;12.638;2022-10-15T11:07:36;95121.50;;;16.76;89.70
71392;BME280;59205;50.610;12.638;2022-10-15T11:10:18;95127.16;;;16.54;90.43
71392;BME280;59205;50.610;12.638;2022-10-15T11:16:03;95135.03;;;15.77;93.97
71392;BME280;59205;50.610;12.638;2022-10-15T11:21:27;95136.28;;;15.76;94.06
71392;BME280;59205;50.610;12.638;2022-10-15T11:27:19;95137.28;;;15.73;93.66
71392;BME280;59205;50.610;12.638;2022-10-15T11:32:31;95141.53;;;15.68;94.53
71392;BME280;59205;50.610;12.638;2022-10-15T11:43:54;95140.72;;;16.30;92.79
71392;BME280;59205;50.610;12.638;2022-10-15T11:46:54;95145.09;;;17.32;86.36
71392;BME280;59205;50.610;12.638;2022-10-15T11:54:41;95159.50;;;16.50;88.33
71392;BME280;59205;50.610;12.638;2022-10-15T11:57:11;95152.47;;;16.20;88.46
71392;BME280;59205;50.610;12.638;2022-10-15T11:59:45;95147.34;;;16.46;89.48
71392;BME280;59205;50.610;12.638;2022-10-15T12:02:15;95142.53;;;17.45;82.30
71392;BME280;59205;50.610;12.638;2022-10-15T12:04:48;95160.47;;;18.94;77.16
71392;BME280;59205;50.610;12.638;2022-10-15T12:07:28;95160.03;;;17.37;82.71
71392;BME280;59205;50.610;12.638;2022-10-15T12:10:03;95156.41;;;17.23;84.11
71392;BME280;59205;50.610;12.638;2022-10-15T12:12:46;95163.97;;;17.41;82.66
71392;BME280;59205;50.610;12.638;2022-10-15T12:20:36;95152.41;;;17.01;84.94
71392;BME280;59205;50.610;12.638;2022-10-15T12:23:17;95155.91;;;16.66;85.78
71392;BME280;59205;50.610;12.638;2022-10-15T12:25:46;95168.41;;;16.56;85.37
71392;BME280;59205;50.610;12.638;2022-10-15T12:28:18;95161.03;;;16.46;87.02
71392;BME280;59205;50.610;12.638;2022-10-15T12:34:04;95153.91;;;16.67;86.03
71392;BME280;59205;50.610;12.638;2022-10-15T12:39:23;95148.72;;;16.63;85.11
71392;BME280;59205;50.610;12.638;2022-10-15T12:41:49;95154.53;;;16.84;84.73
71392;BME280;59205;50.610;12.638;2022-10-15T12:46:49;95146.53;;;16.86;83.54
71392;BME280;59205;50.610;12.638;2022-10-15T12:51:55;95138.63;;;18.20;77.86
71392;BME280;59205;50.610;12.638;2022-10-15T12:54:31;95147.28;;;18.24;76.08
71392;BME280;59205;50.610;12.638;2022-10-15T12:56:58;95141.75;;;17.21;79.25
71392;BME280;59205;50.610;12.638;2022-10-15T12:59:28;95139.38;;;17.07;81.86
71392;BME280;59205;50.610;12.638;2022-10-15T13:01:55;95134.50;;;17.00;81.40
71392;BME280;59205;50.610;12.638;2022-10-15T13:04:20;95150.03;;;16.57;82.42
71392;BME280;59205;50.610;12.638;2022-10-15T13:06:46;95147.06;;;16.55;83.26
71392;BME280;59205;50.610;12.638;2022-10-15T13:09:25;95151.31;;;16.50;83.18
71392;BME280;59205;50.610;12.638;2022-10-15T13:11:54;95151.72;;;16.60;83.12
71392;BME280;59205;50.610;12.638;2022-10-15T13:16:55;95154.94;;;16.23;83.32
71392;BME280;59205;50.610;12.638;2022-10-15T13:19:31;95156.09;;;16.39;84.36
71392;BME280;59205;50.610;12.638;2022-10-15T13:22:03;95154.94;;;16.23;84.25
71392;BME280;59205;50.610;12.638;2022-10-15T13:24:38;95167.41;;;16.13;85.38
71392;BME280;59205;50.610;12.638;2022-10-15T13:27:22;95167.94;;;16.12;85.23
71392;BME280;59205;50.610;12.638;2022-10-15T13:29:59;95177.63;;;16.13;85.09
71392;BME280;59205;50.610;12.638;2022-10-15T13:32:28;95175.59;;;16.13;85.55
71392;BME280;59205;50.610;12.638;2022-10-15T13:34:57;95178.16;;;16.00;84.78
71392;BME280;59205;50.610;12.638;2022-10-15T13:37:30;95179.66;;;15.96;85.62
71392;BME280;59205;50.610;12.638;2022-10-15T13:39:57;95188.56;;;16.07;84.72
71392;BME280;59205;50.610;12.638;2022-10-15T13:42:24;95190.75;;;16.14;85.62
71392;BME280;59205;50.610;12.638;2022-10-15T13:45:02;95184.03;;;16.15;85.08
71392;BME280;59205;50.610;12.638;2022-10-15T13:50:25;95168.84;;;16.25;84.29
71392;BME280;59205;50.610;12.638;2022-10-15T13:55:53;95164.59;;;16.30;83.89
71392;BME280;59205;50.610;12.638;2022-10-15T13:58:45;95173.03;;;16.72;82.43
71392;BME280;59205;50.610;12.638;2022-10-15T14:01:17;95160.56;;;16.77;81.15
71392;BME280;59205;50.610;12.638;2022-10-15T14:03:49;95168.91;;;16.90;80.74
71392;BME280;59205;50.610;12.638;2022-10-15T14:06:22;95170.44;;;16.50;81.51
71392;BME280;59205;50.610;12.638;2022-10-15T14:08:50;95180.13;;;16.57;81.30
71392;BME280;59205;50.610;12.638;2022-10-15T14:11:15;95177.56;;;16.64;80.60
71392;BME280;59205;50.610;12.638;2022-10-15T14:13:50;95179.09;;;16.60;80.00
71392;BME280;59205;50.610;12.638;2022-10-15T14:19:07;95169.00;;;16.79;80.21
71392;BME280;59205;50.610;12.638;2022-10-15T14:21:36;95161.16;;;16.64;79.32
71392;BME280;59205;50.610;12.638;2022-10-15T14:24:10;95171.13;;;16.62;80.03
71392;BME280;59205;50.610;12.638;2022-10-15T14:26:36;95182.38;;;16.88;78.74
71392;BME280;59205;50.610;12.638;2022-10-15T14:29:04;95189.09;;;16.52;80.16
71392;BME280;59205;50.610;12.638;2022-10-15T14:34:00;95180.91;;;16.52;80.18
71392;BME280;59205;50.610;12.638;2022-10-15T14:36:30;95184.59;;;16.54;81.04
71392;BME280;59205;50.610;12.638;2022-10-15T14:39:19;95184.47;;;16.36;81.61